createdAt,value
2017-08-28T00:00:03.290Z,96.66
2017-08-28T00:01:03.332Z,96.71
2017-08-28T00:02:03.269Z,96.68
2017-08-28T00:03:03.306Z,96.73
2017-08-28T00:04:03.343Z,96.30
2017-08-28T00:05:03.333Z,97.13
2017-08-28T00:06:03.265Z,96.45
2017-08-28T00:07:03.709Z,96.33
2017-08-28T00:08:03.744Z,96.11
2017-08-28T00:09:03.677Z,96.91
2017-08-28T00:10:03.985Z,96.62
2017-08-28T00:11:03.718Z,96.90
2017-08-28T00:12:03.757Z,95.91
2017-08-28T00:13:03.700Z,96.54
2017-08-28T00:14:03.735Z,97.12
2017-08-28T00:15:03.277Z,96.87
2017-08-28T00:16:03.364Z,97.18
2017-08-28T00:17:03.311Z,97.21
2017-08-28T00:18:03.340Z,97.34
2017-08-28T00:19:03.379Z,96.56
2017-08-28T00:20:03.319Z,96.51
2017-08-28T00:21:03.382Z,96.83
2017-08-28T00:22:03.414Z,96.67
2017-08-28T00:23:03.341Z,96.34
2017-08-28T00:24:03.693Z,95.88
2017-08-28T00:25:03.734Z,96.41
2017-08-28T00:26:03.769Z,96.69
2017-08-28T00:27:03.739Z,96.37
2017-08-28T00:28:03.776Z,96.33
2017-08-28T00:29:03.911Z,96.51
2017-08-28T00:30:03.759Z,97.07
2017-08-28T00:31:03.387Z,96.88
2017-08-28T00:32:03.323Z,97.17
2017-08-28T00:33:03.359Z,97.25
2017-08-28T00:34:04.210Z,96.51
2017-08-28T00:35:03.344Z,96.67
2017-08-28T00:36:03.442Z,96.70
2017-08-28T00:37:03.402Z,95.99
2017-08-28T00:38:03.430Z,96.08
2017-08-28T00:39:03.756Z,97.13
2017-08-28T00:40:03.789Z,97.40
2017-08-28T00:41:03.943Z,96.08
2017-08-28T00:42:03.877Z,96.08
2017-08-28T00:43:03.855Z,96.69
2017-08-28T00:44:03.788Z,96.69
2017-08-28T00:45:03.823Z,96.93
2017-08-28T00:46:03.863Z,96.87
2017-08-28T00:47:03.393Z,96.78
2017-08-28T00:48:03.428Z,95.04
2017-08-28T00:49:03.397Z,96.75
2017-08-28T00:50:03.446Z,96.91
2017-08-28T00:51:03.482Z,97.08
2017-08-28T00:52:03.470Z,96.52
2017-08-28T00:53:03.401Z,96.70
2017-08-28T00:54:03.431Z,96.58
2017-08-28T00:55:03.869Z,97.12
2017-08-28T00:56:03.903Z,96.75
2017-08-28T00:57:03.840Z,96.87
2017-08-28T00:58:03.875Z,96.49
2017-08-28T00:59:03.812Z,97.07
2017-08-28T01:00:03.852Z,97.03
2017-08-28T01:03:10.949Z,96.53
2017-08-28T01:03:12.064Z,96.95
2017-08-28T01:03:12.671Z,96.78
2017-08-28T01:04:03.477Z,97.10
2017-08-28T01:08:08.820Z,96.69
2017-08-28T01:08:09.429Z,96.68
2017-08-28T01:08:10.037Z,96.68
2017-08-28T01:08:10.749Z,96.79
2017-08-28T01:09:03.453Z,96.69
2017-08-28T01:10:03.885Z,96.90
2017-08-28T01:15:06.723Z,96.78
2017-08-28T01:15:08.345Z,96.72
2017-08-28T01:15:08.953Z,96.41
2017-08-28T01:15:09.558Z,96.52
2017-08-28T01:15:10.166Z,96.82
2017-08-28T01:16:03.483Z,97.11
2017-08-28T01:21:07.737Z,97.00
2017-08-28T01:21:08.337Z,96.83
2017-08-28T01:21:08.945Z,95.67
2017-08-28T01:21:09.552Z,96.55
2017-08-28T01:21:10.160Z,96.83
2017-08-28T01:22:03.475Z,95.84
2017-08-28T01:27:08.584Z,97.01
2017-08-28T01:27:09.598Z,97.31
2017-08-28T01:27:10.207Z,96.51
2017-08-28T01:27:10.816Z,97.09
2017-08-28T01:27:11.426Z,97.80
2017-08-28T01:28:03.535Z,97.67
2017-08-28T01:33:03.868Z,97.75
2017-08-28T01:33:04.883Z,98.14
2017-08-28T01:33:05.493Z,97.81
2017-08-28T01:33:06.101Z,98.29
2017-08-28T01:33:06.709Z,98.16
2017-08-28T01:34:03.932Z,98.29
2017-08-28T01:39:12.909Z,97.83
2017-08-28T01:39:13.517Z,97.30
2017-08-28T01:39:14.124Z,97.46
2017-08-28T01:39:14.732Z,97.94
2017-08-28T01:39:15.342Z,97.51
2017-08-28T01:40:03.543Z,97.95
2017-08-28T01:44:15.877Z,96.27
2017-08-28T01:44:16.892Z,97.65
2017-08-28T01:44:17.500Z,97.68
2017-08-28T01:44:18.110Z,98.12
2017-08-28T01:45:05.012Z,97.58
2017-08-28T01:46:04.038Z,97.35
2017-08-28T01:50:20.795Z,97.13
2017-08-28T01:50:21.807Z,97.21
2017-08-28T01:50:22.415Z,97.32
2017-08-28T01:50:23.126Z,97.30
2017-08-28T01:51:03.602Z,97.80
2017-08-28T01:52:04.029Z,98.12
2017-08-28T01:57:17.865Z,97.42
2017-08-28T01:57:18.487Z,97.50
2017-08-28T01:57:19.096Z,97.13
2017-08-28T01:57:19.705Z,97.89
2017-08-28T01:57:20.312Z,98.67
2017-08-28T01:58:03.609Z,97.43
2017-08-28T02:00:45.552Z,98.42
2017-08-28T02:00:46.565Z,98.13
2017-08-28T02:01:03.606Z,98.17
2017-08-28T02:02:04.033Z,98.34
2017-08-28T02:03:04.066Z,97.63
2017-08-28T02:04:03.994Z,98.13
2017-08-28T02:05:04.030Z,97.39
2017-08-28T02:06:03.989Z,98.68
2017-08-28T02:07:04.017Z,98.72
2017-08-28T02:08:03.645Z,98.61
2017-08-28T02:09:03.678Z,98.01
2017-08-28T02:10:03.627Z,98.00
2017-08-28T02:11:03.664Z,98.47
2017-08-28T02:12:03.600Z,99.28
2017-08-28T02:13:03.629Z,98.94
2017-08-28T02:14:03.650Z,98.62
2017-08-28T02:15:03.711Z,98.68
2017-08-28T02:16:03.694Z,98.19
2017-08-28T02:17:04.023Z,98.24
2017-08-28T02:18:04.058Z,98.87
2017-08-28T02:19:04.091Z,98.86
2017-08-28T02:20:04.189Z,98.89
2017-08-28T02:21:04.128Z,98.78
2017-08-28T02:22:04.210Z,98.54
2017-08-28T02:23:04.139Z,98.59
2017-08-28T02:24:03.670Z,98.11
2017-08-28T02:25:03.710Z,98.06
2017-08-28T02:26:03.739Z,98.29
2017-08-28T02:27:03.673Z,98.96
2017-08-28T02:28:03.720Z,98.75
2017-08-28T02:29:03.655Z,98.32
2017-08-28T02:30:03.697Z,98.29
2017-08-28T02:31:03.744Z,99.14
2017-08-28T02:32:03.686Z,99.25
2017-08-28T02:33:04.161Z,98.93
2017-08-28T02:34:04.106Z,99.25
2017-08-28T02:35:04.163Z,98.79
2017-08-28T02:36:04.234Z,98.84
2017-08-28T02:37:04.168Z,99.17
2017-08-28T02:38:04.212Z,99.32
2017-08-28T02:39:04.158Z,99.32
2017-08-28T02:40:04.204Z,98.80
2017-08-28T02:41:03.740Z,98.21
2017-08-28T02:42:03.769Z,98.19
2017-08-28T02:43:03.848Z,97.66
2017-08-28T02:44:03.777Z,97.70
2017-08-28T02:45:03.712Z,98.46
2017-08-28T02:46:03.764Z,97.94
2017-08-28T02:47:03.787Z,97.65
2017-08-28T02:48:03.813Z,98.54
2017-08-28T02:49:04.161Z,99.05
2017-08-28T02:50:04.190Z,98.54
2017-08-28T02:51:04.127Z,99.31
2017-08-28T02:52:04.158Z,99.46
2017-08-28T02:53:04.191Z,98.49
2017-08-28T02:54:04.133Z,98.52
2017-08-28T02:55:04.168Z,98.09
2017-08-28T02:56:04.201Z,98.31
2017-08-28T02:57:04.227Z,97.72
2017-08-28T02:58:03.859Z,96.96
2017-08-28T02:59:03.791Z,97.88
2017-08-28T03:00:03.755Z,97.04
2017-08-28T03:01:03.832Z,97.80
2017-08-28T03:02:03.857Z,98.96
2017-08-28T03:03:03.777Z,96.83
2017-08-28T03:04:04.220Z,98.00
2017-08-28T03:05:04.283Z,97.06
2017-08-28T03:06:04.207Z,98.08
2017-08-28T03:07:04.245Z,97.77
2017-08-28T03:08:04.212Z,98.52
2017-08-28T03:09:04.263Z,97.54
2017-08-28T03:10:04.253Z,98.51
2017-08-28T03:11:04.199Z,96.79
2017-08-28T03:12:04.226Z,97.90
2017-08-28T03:13:04.261Z,98.36
2017-08-28T03:14:03.792Z,98.62
2017-08-28T03:15:03.821Z,98.55
2017-08-28T03:16:03.801Z,98.61
2017-08-28T03:17:03.833Z,98.59
2017-08-28T03:18:03.875Z,98.49
2017-08-28T03:19:03.813Z,98.96
2017-08-28T03:20:04.260Z,99.03
2017-08-28T03:21:04.291Z,98.44
2017-08-28T03:22:04.245Z,98.25
2017-08-28T03:23:04.367Z,97.97
2017-08-28T03:24:04.296Z,97.99
2017-08-28T03:25:04.281Z,98.61
2017-08-28T03:26:04.224Z,98.51
2017-08-28T03:27:04.298Z,98.76
2017-08-28T03:28:04.337Z,98.75
2017-08-28T03:29:04.279Z,98.56
2017-08-28T03:30:03.901Z,98.56
2017-08-28T03:31:03.848Z,98.90
2017-08-28T03:32:03.892Z,98.52
2017-08-28T03:33:03.951Z,98.55
2017-08-28T03:34:03.891Z,98.89
2017-08-28T03:35:03.852Z,97.74
2017-08-28T03:36:03.886Z,98.27
2017-08-28T03:37:03.917Z,98.35
2017-08-28T03:38:03.946Z,97.96
2017-08-28T03:39:04.374Z,98.62
2017-08-28T03:40:04.304Z,98.64
2017-08-28T03:40:59.619Z,98.64
2017-08-28T03:42:55.603Z,98.01
2017-08-28T03:42:56.212Z,98.31
2017-08-28T03:43:03.931Z,98.36
2017-08-28T03:44:04.356Z,98.69
2017-08-28T03:45:04.319Z,98.86
2017-08-28T03:46:04.359Z,98.45
2017-08-28T03:47:03.883Z,98.47
2017-08-28T03:48:03.922Z,99.10
2017-08-28T03:49:03.897Z,99.01
2017-08-28T03:50:03.928Z,98.57
2017-08-28T03:51:03.958Z,98.46
2017-08-28T03:52:03.980Z,99.23
2017-08-28T03:53:04.010Z,98.46
2017-08-28T03:54:03.939Z,98.15
2017-08-28T03:55:04.368Z,98.10
2017-08-28T03:56:04.392Z,97.51
2017-08-28T03:57:04.311Z,98.34
2017-08-28T03:58:04.441Z,99.18
2017-08-28T03:59:04.392Z,98.36
2017-08-28T04:00:04.336Z,99.74
2017-08-28T04:01:04.375Z,100.00
2017-08-28T04:02:04.512Z,99.16
2017-08-28T04:03:04.454Z,99.57
2017-08-28T04:04:03.965Z,98.79
2017-08-28T04:05:03.974Z,99.43
2017-08-28T04:06:04.001Z,98.79
2017-08-28T04:07:03.943Z,98.81
2017-08-28T04:08:03.980Z,98.59
2017-08-28T04:09:04.012Z,98.52
2017-08-28T04:10:04.435Z,99.02
2017-08-28T04:11:04.416Z,98.57
2017-08-28T04:12:04.456Z,98.86
2017-08-28T04:13:04.408Z,98.34
2017-08-28T04:14:04.468Z,96.33
2017-08-28T04:15:04.393Z,98.51
2017-08-28T04:16:04.426Z,98.60
2017-08-28T04:17:04.453Z,97.80
2017-08-28T04:18:03.981Z,97.56
2017-08-28T04:19:04.022Z,98.26
2017-08-28T04:20:04.043Z,98.92
2017-08-28T04:21:03.993Z,98.51
2017-08-28T04:22:04.011Z,98.41
2017-08-28T04:23:04.035Z,99.00
2017-08-28T04:24:04.077Z,99.07
2017-08-28T04:25:04.081Z,98.38
2017-08-28T04:26:04.048Z,97.44
2017-08-28T04:27:04.466Z,97.95
2017-08-28T04:28:04.511Z,98.03
2017-08-28T04:29:04.450Z,97.98
2017-08-28T04:30:04.426Z,97.94
2017-08-28T04:31:04.463Z,97.63
2017-08-28T04:32:04.419Z,98.59
2017-08-28T04:33:04.545Z,98.88
2017-08-28T04:34:04.482Z,98.22
2017-08-28T04:35:04.099Z,98.26
2017-08-28T04:36:04.024Z,98.49
2017-08-28T04:37:04.154Z,99.14
2017-08-28T04:38:04.105Z,98.06
2017-08-28T04:39:04.035Z,98.78
2017-08-28T04:40:04.066Z,99.27
2017-08-28T04:41:04.088Z,99.17
2017-08-28T04:42:04.527Z,98.76
2017-08-28T04:43:04.565Z,98.89
2017-08-28T04:44:04.607Z,98.39
2017-08-28T04:45:04.445Z,98.52
2017-08-28T04:46:04.489Z,99.07
2017-08-28T04:47:04.639Z,98.05
2017-08-28T04:48:04.580Z,98.68
2017-08-28T04:49:04.549Z,98.33
2017-08-28T04:50:04.549Z,97.91
2017-08-28T04:51:04.111Z,98.61
2017-08-28T04:52:04.076Z,98.36
2017-08-28T04:53:04.159Z,98.35
2017-08-28T04:54:04.104Z,97.81
2017-08-28T04:55:04.131Z,97.17
2017-08-28T04:56:04.157Z,98.02
2017-08-28T04:57:04.144Z,98.13
2017-08-28T04:58:04.180Z,96.69
2017-08-28T04:59:04.131Z,96.87
2017-08-28T05:00:04.522Z,96.63
2017-08-28T05:01:04.576Z,96.68
2017-08-28T05:02:04.545Z,96.48
2017-08-28T05:03:04.591Z,96.54
2017-08-28T05:04:04.555Z,96.84
2017-08-28T05:05:04.584Z,96.34
2017-08-28T05:06:04.514Z,95.88
2017-08-28T05:07:04.569Z,95.52
2017-08-28T05:08:04.182Z,95.56
2017-08-28T05:09:04.211Z,97.20
2017-08-28T05:10:04.149Z,97.37
2017-08-28T05:11:04.168Z,97.46
2017-08-28T05:12:04.244Z,97.41
2017-08-28T05:13:04.235Z,95.29
2017-08-28T05:14:04.173Z,96.12
2017-08-28T05:15:04.562Z,95.68
2017-08-28T05:16:04.609Z,95.01
2017-08-28T05:17:04.571Z,95.29
2017-08-28T05:18:04.610Z,95.08
2017-08-28T05:19:04.741Z,95.39
2017-08-28T05:20:04.570Z,95.24
2017-08-28T05:21:04.613Z,94.70
2017-08-28T05:22:04.580Z,94.91
2017-08-28T05:23:04.742Z,95.02
2017-08-28T05:24:04.626Z,94.55
2017-08-28T05:25:04.177Z,94.75
2017-08-28T05:26:04.235Z,94.54
2017-08-28T05:27:04.201Z,94.55
2017-08-28T05:28:04.276Z,94.38
2017-08-28T05:29:04.237Z,94.62
2017-08-28T05:30:04.207Z,94.93
2017-08-28T05:31:04.271Z,94.53
2017-08-28T05:32:04.207Z,93.79
2017-08-28T05:33:04.645Z,94.07
2017-08-28T05:34:04.680Z,93.53
2017-08-28T05:35:04.603Z,93.82
2017-08-28T05:36:05.157Z,92.61
2017-08-28T05:37:04.692Z,92.81
2017-08-28T05:38:05.122Z,91.77
2017-08-28T05:39:05.063Z,92.52
2017-08-28T05:40:04.200Z,93.82
2017-08-28T05:41:04.238Z,92.12
2017-08-28T05:42:04.297Z,91.67
2017-08-28T05:43:04.231Z,92.05
2017-08-28T05:44:04.372Z,92.86
2017-08-28T05:45:04.250Z,92.51
2017-08-28T05:46:04.297Z,92.85
2017-08-28T05:47:04.215Z,92.18
2017-08-28T05:48:04.675Z,92.84
2017-08-28T05:49:04.700Z,92.98
2017-08-28T05:50:04.639Z,91.67
2017-08-28T05:51:04.695Z,91.14
2017-08-28T05:52:04.758Z,91.71
2017-08-28T05:53:04.714Z,91.59
2017-08-28T05:54:04.709Z,90.60
2017-08-28T05:55:04.713Z,91.55
2017-08-28T05:56:04.701Z,90.21
2017-08-28T05:57:04.731Z,90.41
2017-08-28T05:58:04.331Z,90.31
2017-08-28T05:59:04.282Z,90.26
2017-08-28T15:27:50.507Z,55.69
2017-08-28T15:28:06.320Z,55.81
2017-08-28T15:29:05.927Z,56.41
2017-08-28T15:30:07.237Z,55.80
2017-08-28T15:31:06.155Z,58.05
2017-08-28T15:32:06.766Z,57.19
2017-08-28T15:33:06.577Z,56.62
2017-08-28T15:34:05.234Z,57.40
2017-08-28T15:35:06.082Z,57.73
2017-08-28T15:36:06.289Z,59.66
2017-08-28T15:37:06.874Z,60.05
2017-08-28T15:38:08.827Z,58.05
2017-08-28T15:39:12.937Z,56.14
2017-08-28T15:40:06.189Z,57.63
2017-08-28T16:37:28.080Z,66.44
2017-08-28T16:38:04.744Z,64.69
2017-08-28T16:39:05.404Z,65.78
2017-08-28T16:40:07.507Z,66.22
2017-08-28T16:41:07.428Z,63.74
2017-08-28T16:42:07.914Z,65.08
2017-08-28T16:43:16.383Z,64.76
2017-08-28T16:44:13.729Z,64.61
2017-08-28T16:45:06.766Z,64.00
2017-08-28T16:46:11.082Z,64.81
2017-08-28T16:47:06.715Z,61.58
2017-08-28T16:48:10.540Z,66.73
2017-08-28T16:49:06.648Z,66.82
2017-08-28T16:50:07.892Z,68.31
2017-08-28T16:51:06.673Z,66.49
2017-08-28T16:52:06.825Z,66.38
2017-08-28T16:53:07.982Z,64.20
2017-08-28T16:54:06.672Z,64.29
2017-08-28T16:55:06.794Z,63.90
2017-08-28T16:56:12.355Z,63.86
2017-08-28T16:57:07.011Z,66.14
2017-08-28T16:58:09.090Z,63.98
2017-08-28T16:59:10.791Z,66.99
2017-08-28T17:00:07.415Z,70.00
2017-08-28T17:01:08.287Z,69.02
2017-08-28T17:02:06.440Z,67.69
2017-08-28T17:03:17.156Z,67.02
2017-08-28T17:04:07.091Z,68.14
2017-08-28T17:05:08.132Z,66.25
2017-08-28T17:06:13.403Z,66.89
2017-08-28T17:07:08.263Z,67.33
2017-08-28T17:08:44.133Z,69.20
2017-08-28T17:09:06.583Z,68.51
2017-08-28T17:10:08.965Z,68.41
2017-08-28T17:11:09.602Z,68.74
2017-08-28T17:12:07.508Z,68.55
2017-08-28T17:13:06.506Z,69.49
2017-08-28T21:34:57.111Z,91.73
2017-08-28T21:35:17.370Z,90.54
2017-08-28T21:36:07.400Z,90.54
2017-08-28T21:37:07.455Z,90.66
2017-08-28T21:38:07.398Z,90.63
2017-08-28T21:39:07.354Z,90.43
2017-08-28T21:40:07.661Z,91.84
2017-08-28T21:41:07.406Z,91.57
2017-08-28T21:42:07.464Z,91.25
2017-08-28T21:43:07.011Z,91.59
2017-08-28T21:44:07.078Z,91.35
2017-08-28T21:45:07.025Z,91.12
2017-08-28T21:46:06.992Z,91.32
2017-08-28T21:47:07.046Z,91.45
2017-08-28T21:48:07.094Z,92.51
2017-08-28T21:49:07.032Z,92.24
2017-08-28T21:50:07.831Z,92.71
2017-08-28T21:51:07.089Z,92.38
2017-08-28T21:52:07.019Z,91.71
2017-08-28T21:53:07.063Z,91.35
2017-08-28T21:54:07.612Z,91.63
2017-08-28T21:55:07.559Z,91.97
2017-08-28T21:56:07.717Z,91.58
2017-08-28T21:57:07.454Z,91.56
2017-08-28T21:58:07.502Z,91.99
2017-08-28T21:59:07.062Z,91.25
2017-08-28T22:00:08.002Z,91.60
2017-08-28T22:01:07.052Z,91.44
2017-08-28T22:02:07.149Z,92.23
2017-08-28T22:03:07.099Z,92.93
2017-08-28T22:04:07.081Z,93.02
2017-08-28T22:05:07.227Z,92.19
2017-08-28T22:06:07.111Z,92.15
2017-08-28T22:07:07.062Z,91.57
2017-08-28T22:08:07.534Z,92.63
2017-08-28T22:09:07.523Z,92.78
2017-08-28T22:10:07.584Z,91.75
2017-08-28T22:11:07.538Z,92.80
2017-08-28T22:12:07.655Z,93.01
2017-08-28T22:13:07.506Z,93.43
2017-08-28T22:14:07.660Z,92.01
2017-08-28T22:15:07.703Z,92.09
2017-08-28T22:16:07.041Z,93.10
2017-08-28T22:17:07.092Z,93.63
2017-08-28T22:18:07.138Z,93.28
2017-08-28T22:19:07.149Z,92.07
2017-08-28T22:20:07.363Z,92.60
2017-08-28T22:21:07.143Z,91.52
2017-08-28T22:22:07.141Z,91.71
2017-08-28T22:23:07.595Z,92.07
2017-08-28T22:24:07.525Z,92.01
2017-08-28T22:25:07.680Z,91.73
2017-08-28T22:26:07.622Z,91.71
2017-08-28T22:27:07.598Z,91.89
2017-08-28T22:28:07.547Z,92.78
2017-08-28T22:29:07.526Z,93.40
2017-08-28T22:30:07.568Z,93.06
2017-08-28T22:31:07.635Z,93.67
2017-08-28T22:32:07.582Z,93.33
2017-08-28T22:33:07.147Z,93.76
2017-08-28T22:34:07.182Z,93.75
2017-08-28T22:35:07.167Z,93.28
2017-08-28T22:36:07.122Z,92.22
2017-08-28T22:37:07.178Z,93.47
2017-08-28T22:38:07.226Z,91.99
2017-08-28T22:39:07.269Z,92.33
2017-08-28T22:40:07.214Z,92.88
2017-08-28T22:41:07.170Z,93.88
2017-08-28T22:42:07.623Z,93.50
2017-08-28T22:43:07.678Z,93.66
2017-08-28T22:44:07.725Z,93.42
2017-08-28T22:45:07.719Z,91.74
2017-08-28T22:46:07.622Z,92.08
2017-08-28T22:47:07.622Z,93.31
2017-08-28T22:48:07.576Z,93.12
2017-08-28T22:49:07.684Z,92.78
2017-08-28T22:50:07.218Z,94.04
2017-08-28T22:51:07.209Z,92.85
2017-08-28T22:52:07.262Z,94.34
2017-08-28T22:53:07.205Z,93.32
2017-08-28T22:54:07.257Z,92.69
2017-08-28T22:55:07.232Z,93.56
2017-08-28T22:56:07.279Z,92.98
2017-08-28T22:57:07.242Z,92.29
2017-08-28T22:58:07.281Z,93.16
2017-08-28T22:59:07.622Z,92.40
2017-08-28T23:00:07.851Z,92.82
2017-08-28T23:01:07.684Z,93.16
2017-08-28T23:02:07.775Z,92.26
2017-08-28T23:03:07.742Z,93.39
2017-08-28T23:04:07.584Z,92.30
2017-08-28T23:05:07.764Z,92.92
2017-08-28T23:06:07.703Z,92.93
2017-08-28T23:07:07.280Z,93.72
2017-08-28T23:08:07.300Z,94.22
2017-08-28T23:09:07.296Z,94.37
2017-08-28T23:10:07.515Z,94.73
2017-08-28T23:11:07.294Z,94.67
2017-08-28T23:12:07.256Z,92.78
2017-08-28T23:13:07.401Z,92.93
2017-08-28T23:14:07.250Z,94.35
2017-08-28T23:15:07.816Z,93.29
2017-08-28T23:16:07.660Z,93.09
2017-08-28T23:17:07.700Z,93.13
2017-08-28T23:18:07.768Z,92.73
2017-08-28T23:19:07.637Z,93.01
2017-08-28T23:20:08.069Z,93.59
2017-08-28T23:21:08.116Z,94.70
2017-08-28T23:22:07.769Z,93.56
2017-08-28T23:23:07.297Z,93.39
2017-08-28T23:24:07.361Z,92.94
2017-08-28T23:25:07.375Z,92.82
2017-08-28T23:26:07.328Z,93.31
2017-08-28T23:27:07.354Z,93.21
2017-08-28T23:28:07.333Z,93.56
2017-08-28T23:29:07.379Z,94.07
2017-08-28T23:30:07.368Z,93.62
2017-08-28T23:31:07.304Z,92.82
2017-08-28T23:32:07.743Z,94.50
2017-08-28T23:33:07.677Z,93.26
2017-08-28T23:34:07.719Z,93.73
2017-08-28T23:35:07.871Z,93.87
2017-08-28T23:36:07.756Z,93.17
2017-08-28T23:37:07.798Z,92.79
2017-08-28T23:38:07.734Z,94.38
2017-08-28T23:39:07.776Z,94.11
2017-08-28T23:40:07.827Z,94.64
2017-08-28T23:41:07.387Z,93.95
2017-08-28T23:42:07.327Z,94.43
2017-08-28T23:43:07.477Z,93.90
2017-08-28T23:44:08.122Z,93.88
2017-08-28T23:45:08.853Z,94.32
2017-08-28T23:46:07.754Z,93.87
2017-08-28T23:47:07.427Z,93.99
2017-08-28T23:48:07.867Z,94.48
2017-08-28T23:49:07.804Z,95.00
2017-08-28T23:50:07.839Z,95.20
2017-08-28T23:51:07.850Z,95.16
2017-08-28T23:52:07.796Z,95.10
2017-08-28T23:53:07.851Z,95.94
2017-08-28T23:54:08.389Z,96.17
2017-08-28T23:55:07.829Z,93.78
2017-08-28T23:56:07.362Z,95.10
2017-08-28T23:57:07.413Z,94.84
2017-08-28T23:58:07.457Z,93.49
2017-08-28T23:59:09.010Z,94.15
